Aeroporto :
LOGIN :

Iscrizione | Disclaimer

   EN    FR    IT 

 










Sommario :    VFR   VFR Marginale   IFR   IFR Intensivo   IFR Molto Intensivo
Visibilità : 
Base nubi : 
>= 8 km
>= 3000ft
5 / 8 km
1000 / 3000 ft
1500m / 5 km
500 / 1000 ft
800 / 1500m
200 / 500 ft
< 800m
< 200 ft
Simboli :   Temporali  Nebbia  Neve Forte  Precipitazioni Forti  Vento > 20 kt
SIGMETs :   Varie  Temporali  Ghiacco  Turbolenza  Onda orograficha  Ceneri Vulcaniche







- Altitudine del aeroporto : 56 ft
- Codice IATA : ILY
- Carte del aeroporto


EGPI - Islay

ULTIMO METAR :
  • 210650Z 16012KT 110V170 9999 FEW011 14/12 Q1018

METARs OBSOLETI :
  • 210620Z 15011KT 9999 SCT011 13/12 Q1018
  • 210550Z AUTO 15008KT 9999 NCD 13/12 Q1018
  • 210520Z AUTO 17009KT 110V180 9999 NCD 13/12 Q1019
  • 210450Z AUTO 15009KT 090V170 9999 NCD 13/12 Q1019
  • 210420Z AUTO 12007KT 9999 NCD 12/12 Q1019
  • 210350Z AUTO 14005KT 9999 NCD 12/12 Q1019

TAF TAF EGPI
Valido dal 21 a 06 ore il 21 a 15 ore UTC


210459Z 2106/2115 19015KT 9999 FEW012 SCT018
TEMPO 2106/2115 18020G30KT
TEMPO 2110/2115 6000 RA BKN014
PROB30
TEMPO 2110/2115 4000 +RA
Nessun NOTAM noto per questo aeroporto.



MetMap, La meteo Aeronautica in un colpo d'occhio ! - Copyright ORBIFLY Dicembre 2007 - Disclaimer

ORBIFLY MET'MAP TEAM :

Programmazione e sviluppo : Alexandra Zaïnal
Concezione e sviluppo : Baudouin d'Aumeries
Co-Programmazione e sviluppo : Marc-Olivier Méhu
Supporto tecnico e logistico : Manuel Goepfert
Aiuto per la traduzione : Arnaldo La Scala

Contatto : metmap@orbifly.com




FONTI E CREDITI :

   NOAA